createdAt,value
2019-03-19T00:00:04.655Z,148526.45
2019-03-19T00:01:10.076Z,148492.37
2019-03-19T00:02:15.651Z,148455.13
2019-03-19T00:03:21.349Z,148427.97
2019-03-19T00:04:27.594Z,148439.34
2019-03-19T00:05:32.800Z,148474.69
2019-03-19T00:06:38.475Z,148446.91
2019-03-19T00:07:44.050Z,148427.97
2019-03-19T00:08:49.766Z,148405.91
2019-03-19T00:09:55.337Z,148429.88
2019-03-19T00:11:00.959Z,148397.70
2019-03-19T00:12:06.515Z,148412.20
2019-03-19T00:13:12.141Z,148378.77
2019-03-19T00:14:17.760Z,148369.31
2019-03-19T00:15:23.386Z,148368.03
2019-03-19T00:16:28.976Z,148362.37
2019-03-19T00:17:34.190Z,148390.78
2019-03-19T00:18:39.797Z,148420.41
2019-03-19T00:19:45.396Z,148417.88
2019-03-19T00:20:50.971Z,148433.05
2019-03-19T00:21:56.528Z,148446.91
2019-03-19T00:23:02.176Z,148480.98
2019-03-19T00:24:07.405Z,148416.66
2019-03-19T00:25:12.266Z,148451.36
2019-03-19T00:26:17.988Z,148394.53
2019-03-19T00:27:23.556Z,148395.17
2019-03-19T00:28:29.204Z,148445.64
2019-03-19T00:29:34.825Z,148465.86
2019-03-19T00:30:40.417Z,148468.34
2019-03-19T00:31:45.992Z,148437.44
2019-03-19T00:32:51.573Z,148402.73
2019-03-19T00:33:57.205Z,148414.11
2019-03-19T00:35:02.484Z,148415.38
2019-03-19T00:36:08.031Z,148396.44
2019-03-19T00:37:13.627Z,148417.28
2019-03-19T00:38:19.254Z,148410.94
2019-03-19T00:39:24.857Z,148408.45
2019-03-19T00:40:30.442Z,148383.84
2019-03-19T00:41:35.990Z,148456.39
2019-03-19T00:42:41.557Z,148422.31
2019-03-19T00:43:47.169Z,148422.94
2019-03-19T00:44:52.804Z,148458.92
2019-03-19T00:45:58.405Z,148449.45
2019-03-19T00:47:04.009Z,148390.14
2019-03-19T00:48:09.556Z,148345.34
2019-03-19T00:49:15.192Z,148325.78
2019-03-19T00:50:20.749Z,148277.22
2019-03-19T00:51:26.346Z,148284.78
2019-03-19T00:52:31.917Z,148306.89
2019-03-19T00:53:37.514Z,148298.06
2019-03-19T00:54:43.062Z,148321.38
2019-03-19T00:55:48.657Z,148281.03
2019-03-19T00:56:54.244Z,148267.75
2019-03-19T00:57:59.857Z,148272.83
2019-03-19T00:59:04.808Z,148231.86
2019-03-19T01:00:12.113Z,148252.64
2019-03-19T01:01:17.348Z,148208.48
2019-03-19T01:02:22.914Z,148199.66
2019-03-19T01:03:28.537Z,148207.22
2019-03-19T01:04:34.143Z,148207.22
2019-03-19T01:05:39.690Z,148246.34
2019-03-19T01:06:45.307Z,148273.47
2019-03-19T01:07:50.881Z,148226.78
2019-03-19T01:08:56.112Z,148223.61
2019-03-19T01:10:01.651Z,148222.39
2019-03-19T01:11:07.220Z,148197.81
2019-03-19T01:12:12.817Z,148180.16
2019-03-19T01:13:18.381Z,148199.66
2019-03-19T01:14:24.002Z,148139.14
2019-03-19T01:15:29.595Z,148141.03
2019-03-19T01:16:35.177Z,148128.45
2019-03-19T01:17:40.448Z,148138.55
2019-03-19T01:18:46.083Z,148089.34
2019-03-19T01:19:51.625Z,148094.42
2019-03-19T01:20:57.188Z,148062.30
2019-03-19T01:22:02.783Z,148074.23
2019-03-19T01:23:08.358Z,148093.16
2019-03-19T01:24:13.943Z,148095.06
2019-03-19T01:25:19.525Z,148091.25
2019-03-19T01:26:25.146Z,148040.84
2019-03-19T01:27:30.759Z,148027.63
2019-03-19T01:28:36.349Z,148025.09
2019-03-19T01:29:41.951Z,148085.59
2019-03-19T01:30:47.552Z,148146.75
2019-03-19T01:31:53.101Z,148160.59
2019-03-19T01:32:58.687Z,148176.98
2019-03-19T01:34:03.919Z,148153.67
2019-03-19T01:35:09.217Z,148129.09
2019-03-19T01:36:14.769Z,148072.97
2019-03-19T01:37:20.388Z,148071.11
2019-03-19T01:38:26.006Z,148024.47
2019-03-19T01:39:31.603Z,148042.11
2019-03-19T01:40:37.163Z,148021.28
2019-03-19T01:41:42.733Z,148057.86
2019-03-19T01:42:48.276Z,148057.22
2019-03-19T01:43:53.834Z,148035.19
2019-03-19T01:44:59.431Z,148013.73
2019-03-19T01:46:04.351Z,147964.61
2019-03-19T01:47:09.943Z,147972.16
2019-03-19T01:48:15.519Z,147957.05
2019-03-19T01:49:21.480Z,147950.77
2019-03-19T01:50:27.030Z,147955.16
2019-03-19T01:51:32.592Z,147975.33
2019-03-19T01:52:37.794Z,147977.86
2019-03-19T01:53:43.406Z,147987.27
2019-03-19T01:54:48.979Z,147963.97
2019-03-19T01:56:04.556Z,147944.47
2019-03-19T01:57:00.155Z,147941.31
2019-03-19T01:58:05.738Z,147941.94
2019-03-19T01:59:11.358Z,147957.69
2019-03-19T02:00:17.082Z,147979.08
2019-03-19T02:01:22.654Z,147977.86
2019-03-19T02:02:28.232Z,147984.16
2019-03-19T02:03:33.825Z,147963.34
2019-03-19T02:04:39.425Z,147963.34
2019-03-19T02:05:45.090Z,147937.50
2019-03-19T02:06:50.641Z,147892.83
2019-03-19T02:07:56.229Z,147887.75
2019-03-19T02:09:01.816Z,147887.75
2019-03-19T02:10:06.839Z,147916.75
2019-03-19T02:11:12.395Z,147948.23
2019-03-19T02:12:17.986Z,148023.83
2019-03-19T02:13:23.574Z,147991.70
2019-03-19T02:14:29.161Z,147954.52
2019-03-19T02:15:34.718Z,147989.17
2019-03-19T02:16:40.286Z,147971.53
2019-03-19T02:17:45.533Z,148028.27
2019-03-19T02:18:51.119Z,148016.28
2019-03-19T02:19:56.751Z,148037.09
2019-03-19T02:21:01.954Z,148045.28
2019-03-19T02:22:07.529Z,148042.75
2019-03-19T02:23:13.106Z,148030.12
2019-03-19T02:24:18.709Z,148008.08
2019-03-19T02:25:24.360Z,147991.08
2019-03-19T02:26:29.959Z,147996.72
2019-03-19T02:27:35.537Z,148021.92
2019-03-19T02:28:41.123Z,148035.19
2019-03-19T02:29:46.722Z,148013.09
2019-03-19T02:30:52.306Z,148035.81
2019-03-19T02:31:57.943Z,148044.00
2019-03-19T02:33:03.534Z,148016.91
2019-03-19T02:34:09.090Z,148042.11
2019-03-19T02:35:14.481Z,148017.53
2019-03-19T02:36:19.965Z,148011.88
2019-03-19T02:37:25.599Z,148026.36
2019-03-19T02:38:31.165Z,148059.75
2019-03-19T02:39:36.856Z,148120.91
2019-03-19T02:40:42.642Z,148085.59
2019-03-19T02:41:48.205Z,148095.06
2019-03-19T02:42:53.797Z,148099.44
2019-03-19T02:43:59.403Z,148101.34
2019-03-19T02:45:04.345Z,148093.78
2019-03-19T02:46:09.924Z,148071.11
2019-03-19T02:47:15.511Z,148042.75
2019-03-19T02:48:21.122Z,148056.59
2019-03-19T02:49:26.710Z,148040.84
2019-03-19T02:50:32.329Z,148053.47
2019-03-19T02:51:37.903Z,148049.03
2019-03-19T02:52:43.480Z,148035.81
2019-03-19T02:53:49.049Z,148094.42
2019-03-19T02:54:54.680Z,148084.33
2019-03-19T02:56:00.284Z,148047.13
2019-03-19T02:57:05.852Z,148031.38
2019-03-19T02:58:11.401Z,148037.72
2019-03-19T02:59:16.657Z,148083.06
2019-03-19T03:00:22.305Z,148061.03
2019-03-19T03:01:27.950Z,148046.50
2019-03-19T03:02:33.546Z,148020.08
2019-03-19T03:03:39.126Z,147979.72
2019-03-19T03:04:44.794Z,147951.41
2019-03-19T03:05:50.454Z,147926.84
2019-03-19T03:06:56.040Z,147984.78
2019-03-19T03:08:01.658Z,148043.38
2019-03-19T03:09:06.585Z,148049.03
2019-03-19T03:10:11.497Z,148042.11
2019-03-19T03:11:17.145Z,148023.83
2019-03-19T03:12:22.764Z,148051.56
2019-03-19T03:13:28.336Z,148044.00
2019-03-19T03:14:33.900Z,148008.72
2019-03-19T03:15:39.552Z,147970.89
2019-03-19T03:16:45.205Z,148016.28
2019-03-19T03:17:50.409Z,147996.72
2019-03-19T03:18:55.632Z,148033.28
2019-03-19T03:20:01.209Z,148011.88
2019-03-19T03:21:06.853Z,148023.83
2019-03-19T03:22:12.434Z,148006.81
2019-03-19T03:23:18.008Z,148013.09
2019-03-19T03:24:23.586Z,148049.03
2019-03-19T03:25:29.182Z,148084.33
2019-03-19T03:26:46.824Z,148105.73
2019-03-19T03:27:40.388Z,148098.81
2019-03-19T03:28:46.029Z,148089.98
2019-03-19T03:29:51.329Z,148065.41
2019-03-19T03:30:56.980Z,148065.41
2019-03-19T03:32:02.571Z,148049.03
2019-03-19T03:33:08.149Z,148088.13
2019-03-19T03:34:13.696Z,148095.69
2019-03-19T03:35:19.315Z,148069.84
2019-03-19T03:36:24.891Z,148046.50
2019-03-19T03:37:30.451Z,148015.00
2019-03-19T03:38:36.064Z,148044.00
2019-03-19T03:39:41.661Z,148077.41
2019-03-19T03:40:47.394Z,148061.66
2019-03-19T03:41:53.132Z,148064.78
2019-03-19T03:42:58.620Z,148084.97
2019-03-19T03:44:03.822Z,148063.50
2019-03-19T03:45:08.661Z,148059.12
2019-03-19T03:46:14.295Z,148069.22
2019-03-19T03:47:19.862Z,148001.16
2019-03-19T03:48:25.170Z,148001.80
2019-03-19T03:49:30.740Z,148013.73
2019-03-19T03:50:36.392Z,147980.34
2019-03-19T03:51:42.029Z,148038.31
2019-03-19T03:52:47.594Z,148015.00
2019-03-19T03:53:53.207Z,148006.81
2019-03-19T03:54:58.772Z,147996.09
2019-03-19T03:56:04.412Z,148040.84
2019-03-19T03:57:10.027Z,148006.19
2019-03-19T03:58:15.644Z,148037.09
2019-03-19T03:59:20.887Z,148041.47
2019-03-19T04:00:26.555Z,148037.09
2019-03-19T04:01:32.192Z,148038.31
2019-03-19T04:02:37.805Z,148087.50
2019-03-19T04:03:43.427Z,148103.25
2019-03-19T04:04:48.665Z,148040.84
2019-03-19T04:05:54.307Z,148039.56
2019-03-19T04:06:59.906Z,148071.70
2019-03-19T04:08:05.199Z,148074.23
2019-03-19T04:09:10.817Z,148033.28
2019-03-19T04:10:16.590Z,148029.48
2019-03-19T04:11:22.489Z,148024.47
2019-03-19T04:12:28.090Z,148045.91
2019-03-19T04:13:33.661Z,148063.50
2019-03-19T04:14:39.285Z,148054.09
2019-03-19T04:15:44.701Z,148096.91
2019-03-19T04:16:50.292Z,148128.45
2019-03-19T04:17:55.931Z,148122.17
2019-03-19T04:19:01.531Z,148161.86
2019-03-19T04:20:06.502Z,148098.17
2019-03-19T04:21:12.158Z,148080.53
2019-03-19T04:22:17.743Z,148088.13
2019-03-19T04:23:23.362Z,148117.09
2019-03-19T04:24:28.612Z,148142.31
2019-03-19T04:25:34.059Z,148175.08
2019-03-19T04:26:39.685Z,148171.33
2019-03-19T04:27:45.307Z,148112.06
2019-03-19T04:28:50.834Z,148095.06
2019-03-19T04:29:56.088Z,148059.12
2019-03-19T04:31:01.708Z,148052.20
2019-03-19T04:32:07.327Z,148048.39
2019-03-19T04:33:12.993Z,148105.73
2019-03-19T04:34:18.554Z,148108.91
2019-03-19T04:35:24.129Z,148101.98
2019-03-19T04:36:29.798Z,148101.34
2019-03-19T04:37:35.482Z,148141.67
2019-03-19T04:38:40.776Z,148137.91
2019-03-19T04:39:46.411Z,148154.94
2019-03-19T04:40:51.995Z,148138.55
2019-03-19T04:41:57.639Z,148146.11
2019-03-19T04:43:03.244Z,148110.81
2019-03-19T04:44:08.501Z,148115.19
2019-03-19T04:45:13.404Z,148105.73
2019-03-19T04:46:18.688Z,148152.41
2019-03-19T04:47:24.269Z,148202.20
2019-03-19T04:48:29.841Z,148201.56
2019-03-19T04:49:35.414Z,148169.42
2019-03-19T04:50:41.059Z,148169.42
2019-03-19T04:51:46.709Z,148231.22
2019-03-19T04:52:52.306Z,148218.59
2019-03-19T04:53:57.895Z,148216.05
2019-03-19T04:55:03.133Z,148216.69
2019-03-19T04:56:08.697Z,148184.53
2019-03-19T04:57:14.308Z,148227.41
2019-03-19T04:58:19.923Z,148236.88
2019-03-19T04:59:28.359Z,148202.20
2019-03-19T05:00:33.966Z,148204.73
2019-03-19T05:01:39.615Z,148168.78
2019-03-19T05:02:45.215Z,148197.81
2019-03-19T05:03:50.820Z,148197.17
2019-03-19T05:04:56.398Z,148187.08
2019-03-19T05:06:02.036Z,148196.53
2019-03-19T05:07:07.311Z,148270.94
2019-03-19T05:08:12.904Z,148224.87
2019-03-19T05:09:18.730Z,148229.31
2019-03-19T05:10:24.296Z,148236.25
2019-03-19T05:11:30.525Z,148261.47
2019-03-19T05:12:36.202Z,148241.91
2019-03-19T05:13:41.796Z,148196.53
2019-03-19T05:14:47.411Z,148250.09
2019-03-19T05:15:53.007Z,148278.50
2019-03-19T05:16:58.651Z,148251.37
2019-03-19T05:18:03.883Z,148287.33
2019-03-19T05:19:09.456Z,148257.08
2019-03-19T05:20:15.227Z,148267.12
2019-03-19T05:21:20.779Z,148270.30
2019-03-19T05:22:26.446Z,148284.16
2019-03-19T05:23:32.042Z,148269.03
2019-03-19T05:24:37.594Z,148257.08
2019-03-19T05:25:43.189Z,148231.86
2019-03-19T05:26:48.818Z,148260.20
2019-03-19T05:27:54.476Z,148281.03
2019-03-19T05:29:00.148Z,148303.72
2019-03-19T05:30:10.595Z,148310.02
2019-03-19T05:31:16.309Z,148286.69
2019-03-19T05:32:21.980Z,148306.89
2019-03-19T05:33:27.607Z,148262.73
2019-03-19T05:34:33.312Z,148285.42
2019-03-19T05:35:38.945Z,148277.86
2019-03-19T05:36:44.225Z,148314.45
2019-03-19T05:37:49.868Z,148313.81
2019-03-19T05:38:55.469Z,148264.64
2019-03-19T05:40:01.175Z,148306.25
2019-03-19T05:41:06.785Z,148322.02
2019-03-19T05:42:12.400Z,148341.59
2019-03-19T05:43:18.128Z,148322.66
2019-03-19T05:44:23.707Z,148345.34
2019-03-19T05:45:29.322Z,148318.22
2019-03-19T05:46:34.938Z,148322.66
2019-03-19T05:47:40.964Z,148323.28
2019-03-19T05:48:46.239Z,148308.11
2019-03-19T05:49:51.797Z,148274.09
2019-03-19T05:50:57.406Z,148294.25
2019-03-19T05:52:03.067Z,148329.58
2019-03-19T05:53:08.677Z,148303.08
2019-03-19T05:54:14.354Z,148332.13
2019-03-19T05:55:19.581Z,148310.66
2019-03-19T05:56:25.148Z,148299.91
2019-03-19T05:57:30.824Z,148320.75
2019-03-19T05:58:36.429Z,148329.58
2019-03-19T05:59:42.016Z,148286.69
2019-03-19T06:00:48.117Z,148310.66
2019-03-19T06:01:53.703Z,148341.59
2019-03-19T06:02:59.355Z,148339.05
2019-03-19T06:04:04.903Z,148309.37
2019-03-19T06:05:09.814Z,148347.25
2019-03-19T06:06:15.401Z,148306.89
2019-03-19T06:07:21.018Z,148330.22
2019-03-19T06:08:26.757Z,148360.47
2019-03-19T06:09:32.442Z,148304.34
2019-03-19T06:10:38.065Z,148327.05
2019-03-19T06:11:44.093Z,148360.47
2019-03-19T06:12:49.736Z,148345.34
2019-03-19T06:13:55.337Z,148313.19
2019-03-19T06:15:00.953Z,148299.91
2019-03-19T06:16:06.557Z,148354.17
2019-03-19T06:17:11.817Z,148380.03
2019-03-19T06:18:17.403Z,148387.61
2019-03-19T06:19:22.993Z,148407.19
2019-03-19T06:20:28.592Z,148412.84
2019-03-19T06:21:34.234Z,148438.72
2019-03-19T06:22:39.846Z,148433.05
2019-03-19T06:23:45.474Z,148399.61
2019-03-19T06:24:51.178Z,148419.14
2019-03-19T06:25:56.792Z,148399.61
2019-03-19T06:27:02.393Z,148417.28
2019-03-19T06:28:07.662Z,148436.17
2019-03-19T06:29:13.266Z,148449.45
2019-03-19T06:30:18.819Z,148419.78
2019-03-19T06:31:24.408Z,148434.91
2019-03-19T06:32:29.989Z,148421.67
2019-03-19T06:33:35.582Z,148412.84
2019-03-19T06:34:41.125Z,148431.14
2019-03-19T06:35:46.723Z,148429.88
2019-03-19T06:36:52.314Z,148424.22
2019-03-19T06:37:57.569Z,148441.25
2019-03-19T06:39:02.946Z,148481.63
2019-03-19T06:40:12.386Z,148487.28
2019-03-19T06:41:17.952Z,148481.63
2019-03-19T06:42:23.609Z,148429.88
2019-03-19T06:43:29.196Z,148426.06
2019-03-19T06:44:34.770Z,148409.67
2019-03-19T06:45:40.373Z,148441.25
2019-03-19T06:46:45.937Z,148457.66
2019-03-19T06:47:51.186Z,148480.98
2019-03-19T06:48:56.719Z,148510.05
2019-03-19T06:50:02.311Z,148496.75
2019-03-19T06:51:07.911Z,148525.19
2019-03-19T06:52:13.504Z,148539.69
2019-03-19T06:53:19.129Z,148510.62
2019-03-19T06:54:24.731Z,148454.48
2019-03-19T06:55:30.284Z,148479.09
2019-03-19T06:56:35.509Z,148520.09
2019-03-19T06:57:40.760Z,148545.34
2019-03-19T06:58:46.342Z,148550.42
2019-03-19T06:59:51.929Z,148597.75
2019-03-19T07:00:57.548Z,148546.61
2019-03-19T07:02:03.208Z,148599.66
2019-03-19T07:03:08.503Z,148575.03
2019-03-19T07:04:14.090Z,148545.98
2019-03-19T07:05:18.964Z,148533.38
2019-03-19T07:06:24.985Z,148537.14
2019-03-19T07:07:30.158Z,148528.94
2019-03-19T07:08:35.970Z,148482.89
2019-03-19T07:09:41.595Z,148528.30
2019-03-19T07:10:47.195Z,148522.00
2019-03-19T07:11:52.807Z,148498.66
2019-03-19T07:12:58.511Z,148482.25
2019-03-19T07:14:03.728Z,148474.06
2019-03-19T07:15:09.426Z,148463.95
2019-03-19T07:16:15.031Z,148487.28
2019-03-19T07:17:20.646Z,148532.75
2019-03-19T07:18:26.269Z,148538.41
2019-03-19T07:19:31.822Z,148569.37
2019-03-19T07:20:37.374Z,148518.25
2019-03-19T07:21:42.955Z,148497.39
2019-03-19T07:22:48.550Z,148510.62
2019-03-19T07:23:54.192Z,148582.61
2019-03-19T07:24:59.792Z,148577.58
2019-03-19T07:26:04.668Z,148600.28
2019-03-19T07:27:10.274Z,148597.11
2019-03-19T07:28:22.021Z,148586.42
2019-03-19T07:29:21.504Z,148600.92
2019-03-19T07:30:26.132Z,148623.00
2019-03-19T07:31:31.743Z,148661.55
2019-03-19T07:32:40.369Z,148707.61
2019-03-19T07:33:45.995Z,148720.27
2019-03-19T07:34:51.552Z,148746.80
2019-03-19T07:35:56.752Z,148738.59
2019-03-19T07:37:02.357Z,148762.59
2019-03-19T07:38:07.609Z,148758.78
2019-03-19T07:39:13.197Z,148768.25
2019-03-19T07:40:18.822Z,148799.83
2019-03-19T07:41:24.429Z,148799.19
2019-03-19T07:42:30.048Z,148830.81
2019-03-19T07:43:35.684Z,148826.38
2019-03-19T07:44:40.916Z,148864.30
2019-03-19T07:45:46.499Z,148885.77
2019-03-19T07:46:52.082Z,148886.41
2019-03-19T07:47:57.772Z,148899.66
2019-03-19T07:49:03.359Z,148904.09
2019-03-19T07:50:08.221Z,148911.05
2019-03-19T07:51:13.806Z,148899.06
2019-03-19T07:52:19.433Z,148896.52
2019-03-19T07:53:25.095Z,148847.25
2019-03-19T07:54:30.644Z,148861.13
2019-03-19T07:55:36.211Z,148904.09
2019-03-19T07:56:41.790Z,148925.56
2019-03-19T07:57:47.001Z,148925.56
2019-03-19T07:58:52.582Z,148924.92
2019-03-19T07:59:58.190Z,148875.64
2019-03-19T08:01:03.813Z,148871.25
2019-03-19T08:02:09.419Z,148844.06
2019-03-19T08:03:16.313Z,148835.84
2019-03-19T08:04:20.650Z,148877.55
2019-03-19T08:05:32.955Z,148841.52
2019-03-19T08:06:32.831Z,148842.16
2019-03-19T08:07:37.480Z,148880.72
2019-03-19T08:08:43.087Z,148872.52
2019-03-19T08:09:51.524Z,148891.44
2019-03-19T08:10:57.148Z,148864.30
2019-03-19T08:12:02.722Z,148837.75
2019-03-19T08:13:08.309Z,148808.03
2019-03-19T08:14:13.904Z,148813.13
2019-03-19T08:15:19.460Z,148847.25
2019-03-19T08:16:27.679Z,148856.09
2019-03-19T08:17:30.678Z,148818.78
2019-03-19T08:18:36.338Z,148774.56
2019-03-19T08:19:41.955Z,148813.13
2019-03-19T08:20:47.515Z,148776.47
2019-03-19T08:21:53.128Z,148716.47
2019-03-19T08:22:58.883Z,148737.97
2019-03-19T08:24:04.457Z,148648.25
2019-03-19T08:25:10.264Z,148607.22
2019-03-19T08:26:16.013Z,148592.09
2019-03-19T08:27:21.644Z,148585.78
2019-03-19T08:28:27.293Z,148599.66
2019-03-19T08:29:34.638Z,148575.67
2019-03-19T08:30:38.704Z,148545.98
2019-03-19T08:31:44.553Z,148531.47
2019-03-19T08:32:49.845Z,148540.95
2019-03-19T08:33:55.515Z,148508.14
2019-03-19T08:35:01.131Z,148568.73
2019-03-19T08:36:09.532Z,148552.92
2019-03-19T08:37:11.718Z,148539.05
2019-03-19T08:38:17.356Z,148553.55
2019-03-19T08:39:23.054Z,148546.61
2019-03-19T08:40:28.743Z,148563.66
2019-03-19T08:41:34.065Z,148544.12
2019-03-19T08:42:39.712Z,148508.14
2019-03-19T08:43:45.367Z,148450.09
2019-03-19T08:44:51.033Z,148436.81
2019-03-19T08:45:56.742Z,148434.31
2019-03-19T08:47:02.380Z,148461.41
2019-03-19T08:48:08.035Z,148414.11
2019-03-19T08:49:13.706Z,148418.50
2019-03-19T08:50:19.541Z,148409.08
2019-03-19T08:51:25.212Z,148328.95
2019-03-19T08:52:30.857Z,148329.58
2019-03-19T08:53:36.463Z,148321.38
2019-03-19T08:54:42.171Z,148282.30
2019-03-19T08:55:47.802Z,148277.22
2019-03-19T08:56:53.118Z,148257.66
2019-03-19T08:57:58.707Z,148256.44
2019-03-19T08:59:06.022Z,148260.20
2019-03-19T09:00:11.406Z,148288.59
2019-03-19T09:01:17.050Z,148342.17
2019-03-19T09:02:22.749Z,148402.09
2019-03-19T09:03:28.457Z,148405.28
2019-03-19T09:04:34.133Z,148396.44
2019-03-19T09:05:39.391Z,148385.06
2019-03-19T09:06:45.019Z,148410.94
2019-03-19T09:07:50.640Z,148457.66
2019-03-19T09:08:56.247Z,148557.36
2019-03-19T09:10:01.889Z,148578.16
2019-03-19T09:11:07.538Z,148640.05
2019-03-19T09:12:13.243Z,148602.83
2019-03-19T09:13:18.959Z,148588.91
2019-03-19T09:14:24.672Z,148647.63
2019-03-19T09:15:30.011Z,148681.72
2019-03-19T09:16:35.689Z,148700.05
2019-03-19T09:17:41.387Z,148727.84
2019-03-19T09:18:47.185Z,148732.25
2019-03-19T09:19:52.894Z,148751.20
2019-03-19T09:20:58.651Z,148804.28
2019-03-19T09:22:04.272Z,148832.03
2019-03-19T09:23:09.929Z,148809.94
2019-03-19T09:24:15.643Z,148852.91
2019-03-19T09:25:20.888Z,148867.44
2019-03-19T09:26:26.469Z,148924.92
2019-03-19T09:27:32.125Z,148843.42
2019-03-19T09:28:37.758Z,148857.94
2019-03-19T09:29:43.380Z,148886.41
2019-03-19T09:30:49.015Z,148864.94
2019-03-19T09:31:54.737Z,148838.39
2019-03-19T09:33:00.454Z,148847.88
2019-03-19T09:34:06.108Z,148875.00
2019-03-19T09:35:11.115Z,148922.44
2019-03-19T09:36:16.873Z,148914.86
2019-03-19T09:37:22.512Z,148870.61
2019-03-19T09:38:28.207Z,148919.89
2019-03-19T09:39:33.885Z,148990.75
2019-03-19T09:40:39.513Z,149040.69
2019-03-19T09:41:45.296Z,149026.75
2019-03-19T09:42:50.987Z,149028.66
2019-03-19T09:43:56.627Z,149092.53
2019-03-19T09:45:02.262Z,149095.67
2019-03-19T09:46:07.911Z,149138.03
2019-03-19T09:47:13.638Z,149091.91
2019-03-19T09:48:19.278Z,149088.72
2019-03-19T09:49:24.916Z,149027.37
2019-03-19T09:50:30.757Z,149065.34
2019-03-19T09:51:36.357Z,149048.91
2019-03-19T09:52:42.009Z,149110.25
2019-03-19T09:53:47.668Z,149098.22
2019-03-19T09:54:53.316Z,149088.08
2019-03-19T09:55:58.943Z,149103.25
2019-03-19T09:57:04.564Z,149110.25
2019-03-19T09:58:10.213Z,149040.05
2019-03-19T09:59:15.896Z,149041.31
2019-03-19T10:00:20.928Z,149019.16
2019-03-19T10:01:26.520Z,149087.44
2019-03-19T10:02:32.210Z,149126.69
2019-03-19T10:03:37.837Z,149107.06
2019-03-19T10:04:43.471Z,149015.39
2019-03-19T10:05:49.079Z,149020.44
2019-03-19T10:06:54.676Z,149004.63
2019-03-19T10:08:00.314Z,149009.67
2019-03-19T10:09:05.285Z,149062.80
2019-03-19T10:10:12.901Z,149055.22
2019-03-19T10:11:18.578Z,149044.44
2019-03-19T10:12:24.262Z,149098.84
2019-03-19T10:13:29.970Z,149129.19
2019-03-19T10:14:35.592Z,149129.81
2019-03-19T10:15:41.239Z,149134.91
2019-03-19T10:16:46.882Z,149196.86
2019-03-19T10:17:52.526Z,149218.39
2019-03-19T10:18:58.123Z,149202.58
2019-03-19T10:20:03.100Z,149193.09
2019-03-19T10:21:08.774Z,149160.20
2019-03-19T10:22:15.296Z,149184.23
2019-03-19T10:23:20.022Z,149205.72
2019-03-19T10:24:25.638Z,149242.42
2019-03-19T10:25:31.295Z,149265.19
2019-03-19T10:26:36.934Z,149311.39
2019-03-19T10:27:42.636Z,149355.70
2019-03-19T10:28:48.228Z,149370.25
2019-03-19T10:29:53.862Z,149417.70
2019-03-19T10:30:59.540Z,149426.56
2019-03-19T10:32:04.921Z,149390.47
2019-03-19T10:33:10.529Z,149391.75
2019-03-19T10:34:16.206Z,149367.70
2019-03-19T10:35:21.495Z,149309.48
2019-03-19T10:36:27.128Z,149308.22
2019-03-19T10:37:32.948Z,149270.91
2019-03-19T10:38:38.581Z,149253.19
2019-03-19T10:39:44.231Z,149242.42
2019-03-19T10:40:49.928Z,149218.39
2019-03-19T10:41:55.597Z,149205.72
2019-03-19T10:43:01.228Z,149177.28
2019-03-19T10:44:06.844Z,149181.05
2019-03-19T10:45:15.401Z,149177.28
2019-03-19T10:46:21.074Z,149184.23
2019-03-19T10:47:26.695Z,149144.41
2019-03-19T10:48:32.291Z,149139.31
2019-03-19T10:49:37.890Z,149105.16
2019-03-19T10:50:43.536Z,149098.22
2019-03-19T10:51:49.164Z,149083.69
2019-03-19T10:52:54.450Z,149016.03
2019-03-19T10:54:00.137Z,148993.88
2019-03-19T10:55:05.080Z,148920.53
2019-03-19T10:56:10.754Z,148830.81
2019-03-19T10:57:16.437Z,148744.89
2019-03-19T10:58:22.125Z,148656.47
2019-03-19T10:59:27.770Z,148661.55
2019-03-19T11:00:33.459Z,148651.44
2019-03-19T11:01:39.064Z,148655.19
2019-03-19T11:02:44.429Z,148607.22
2019-03-19T11:03:50.057Z,148585.78
2019-03-19T11:04:55.721Z,148604.05
2019-03-19T11:06:01.454Z,148660.91
2019-03-19T11:07:07.096Z,148674.78
2019-03-19T11:08:12.731Z,148646.34
2019-03-19T11:09:18.316Z,148616.06
2019-03-19T11:10:23.709Z,148611.67
2019-03-19T11:11:29.366Z,148645.13
2019-03-19T11:12:34.997Z,148686.80
2019-03-19T11:13:40.586Z,148667.84
2019-03-19T11:14:46.262Z,148686.16
2019-03-19T11:15:51.950Z,148683.63
2019-03-19T11:16:57.635Z,148715.83
2019-03-19T11:18:03.269Z,148729.11
2019-03-19T11:19:08.893Z,148756.23
2019-03-19T11:20:18.322Z,148784.67
2019-03-19T11:21:23.992Z,148817.52
2019-03-19T11:22:29.590Z,148774.56
2019-03-19T11:23:35.321Z,148801.09
2019-03-19T11:24:40.959Z,148750.56
2019-03-19T11:25:54.162Z,148760.69
2019-03-19T11:26:52.371Z,148772.66
2019-03-19T11:27:58.026Z,148746.80
2019-03-19T11:29:03.689Z,148811.22
2019-03-19T11:30:09.446Z,148825.09
2019-03-19T11:31:15.122Z,148827.00
2019-03-19T11:32:20.800Z,148844.70
2019-03-19T11:33:26.477Z,148878.19
2019-03-19T11:34:32.116Z,148920.53
2019-03-19T11:35:37.405Z,148918.63
2019-03-19T11:36:43.213Z,148890.22
2019-03-19T11:37:48.576Z,148955.97
2019-03-19T11:38:54.209Z,148946.48
2019-03-19T11:39:59.482Z,148997.69
2019-03-19T11:41:04.472Z,149058.39
2019-03-19T11:42:10.585Z,149102.63
2019-03-19T11:43:16.256Z,149153.84
2019-03-19T11:44:21.931Z,149148.17
2019-03-19T11:45:27.162Z,149192.45
2019-03-19T11:46:32.817Z,149205.72
2019-03-19T11:47:38.417Z,149267.73
2019-03-19T11:48:44.056Z,149301.89
2019-03-19T11:49:49.713Z,149367.70
2019-03-19T11:50:55.332Z,149351.25
2019-03-19T11:52:00.971Z,149415.84
2019-03-19T11:53:05.908Z,149420.25
2019-03-19T11:54:11.595Z,149477.22
2019-03-19T11:55:16.469Z,149496.84
2019-03-19T11:56:22.148Z,149477.22
2019-03-19T11:57:27.726Z,149536.14
2019-03-19T11:58:33.337Z,149598.86
2019-03-19T11:59:38.967Z,149642.58
2019-03-19T12:00:44.761Z,149652.08
2019-03-19T12:01:50.499Z,149506.36
2019-03-19T12:02:56.200Z,149377.84
2019-03-19T12:04:01.802Z,149486.08
2019-03-19T12:05:06.912Z,149514.58
2019-03-19T12:06:12.541Z,149440.53
2019-03-19T12:07:18.229Z,149358.20
2019-03-19T12:08:23.873Z,149278.50
2019-03-19T12:09:29.522Z,149320.89
2019-03-19T12:10:35.152Z,149343.66
2019-03-19T12:11:40.831Z,149321.53
2019-03-19T12:12:46.520Z,149220.30
2019-03-19T12:13:52.199Z,149186.14
2019-03-19T12:14:57.833Z,149146.25
2019-03-19T12:16:03.142Z,149112.11
2019-03-19T12:17:08.772Z,149076.73
2019-03-19T12:18:14.424Z,149114.66
2019-03-19T12:19:20.049Z,149129.81
2019-03-19T12:20:25.657Z,149112.73
2019-03-19T12:21:31.317Z,149042.59
2019-03-19T12:22:36.902Z,148955.34
2019-03-19T12:23:42.544Z,148998.33
2019-03-19T12:24:48.164Z,149048.27
2019-03-19T12:25:53.775Z,149117.19
2019-03-19T12:26:59.467Z,149117.19
2019-03-19T12:28:04.806Z,149114.02